Irvona, PA (16656)

10:40 AM EST on December 25, 2014 (GMT -0500)
NE Indiana County Pa. | Change Station
CLOSE
Current Station
Personal Weather Station
Location: Cherry Tree, PA
Elevation: 1601 ft
Nearby Weather Stations
Active Advisory: Wind Advisory

Elev 1601 ft 40.78 °N, 78.81 °W | Updated 20 seconds ago

Overcast
Overcast
38.3 °F
Feels Like 38 °F
N
1.0
Wind Variable Wind from WSW
Gusts 3.0 mph

Today
High -- | Low -- °F
--% Chance of Precip.
Yesterday
High -- | Low -- °F
Precip. -- in
7:36 AM 4:51 PM
Waxing Crescent, 17% visible
Pressure 29.85 in
Visibility 10.0 miles
Clouds Overcast 2000 ft
Windchill 38 °F
Dew Point 36 °F
Humidity 91%
Rainfall 0.00 in
Snow Depth Not available.
UV 0 out of 12
Pollen .10 out of 12
Air Quality Not available.
Flu Activity Not available.
METAR KFIG 251454Z AUTO 24010G18KT 10SM OVC020 03/00 A2982 RMK AO2 RAE25 SLP106 P0000 60000 T00330000 53035

More Conditions Fewer Conditions

Pressure 29.85 in
Visibility 10.0 miles
Clouds Overcast 2000 ft
Windchill 38 °F
Dew Point 36 °F
Humidity 91%
Rainfall 0.00 in
Snow Depth Not available.
UV 0 out of 12
Pollen .10 out of 12
Air Quality Not available.
Flu Activity Not available.
METAR KFIG 251454Z AUTO 24010G18KT 10SM OVC020 03/00 A2982 RMK AO2 RAE25 SLP106 P0000 60000 T00330000 53035

More Conditions Fewer Conditions

10-Day Weather Forecast

Almanac

Astronomy

Dec. 25, 2014 Rise Set
Actual Time
Civil Twilight
Nautical Twilight
Astronomical Twilight
Moon
Length of Visible Light
Length of Day
Tomorrow will be .
, % of the Moon is Illuminated

Today's Extremes

State Highs State Lows

Community

WunderPhotos

Upload Photos

1,780,315 photos uploaded!

WunderBlogs® & News

Nearby

Air Quality

  Air Quality AQ Index Pollutant
Not available.

Snow Depth

Station Depth Elevation

Earthquake Activity

City Distance Mag. Time & Date
Minimum magnitude displayed is 2.5.

Coastal Water Temperatures

Place Temperature

Nearby Weather Stations